Terminal Aerodrome Forecast
Issued by NWS Nashville, TN

Current Version | Previous Version | Text Only | Print | Product List | Glossary Off
Versions: 1 2 3 4 5 6 7 8 9 10 11 12 13 14 15 16 17 18 19 20 21 22 23 24 25 26 27 28 29 30 31 32 33 34 35 36 37 38 39 40 41 42 43 44

000
FTUS44 KOHX 051100
TAFCSV
TAF
KCSV 051126Z 0512/0612 01010G16KT 3SM -SN BR BKN007 OVC013
     FM051300 36011G17KT 2SM -SN BR OVC008
     FM052100 35012G18KT 6SM -SN OVC015
     FM060000 35010KT P6SM OVC015=

USA.gov is the U.S. government's official web portal to all federal, state and local government web resources and services.